sensor_id;sensor_type;location;lat;lon;timestamp;temperature;humidity
28715;DHT22;15886;49.170;14.572;2022-09-13T00:40:06;16.90;92.10
28715;DHT22;15886;49.170;14.572;2022-09-13T00:42:34;16.80;92.10
28715;DHT22;15886;49.170;14.572;2022-09-13T00:47:48;16.90;92.10
28715;DHT22;15886;49.170;14.572;2022-09-13T00:50:36;16.80;91.90
28715;DHT22;15886;49.170;14.572;2022-09-13T00:55:48;16.70;91.70
28715;DHT22;15886;49.170;14.572;2022-09-13T00:58:55;16.70;91.70
28715;DHT22;15886;49.170;14.572;2022-09-13T01:01:16;16.70;91.80
28715;DHT22;15886;49.170;14.572;2022-09-13T01:03:46;16.60;91.80
28715;DHT22;15886;49.170;14.572;2022-09-13T01:06:19;16.60;91.80
28715;DHT22;15886;49.170;14.572;2022-09-13T01:08:50;16.60;92.00
28715;DHT22;15886;49.170;14.572;2022-09-13T01:11:35;16.50;92.20
28715;DHT22;15886;49.170;14.572;2022-09-13T01:14:07;16.50;92.40
28715;DHT22;15886;49.170;14.572;2022-09-13T01:16:36;16.60;92.50
28715;DHT22;15886;49.170;14.572;2022-09-13T01:19:05;16.50;92.50
28715;DHT22;15886;49.170;14.572;2022-09-13T01:21:55;16.50;92.80
28715;DHT22;15886;49.170;14.572;2022-09-13T01:27:40;16.50;93.10
28715;DHT22;15886;49.170;14.572;2022-09-13T01:30:24;16.50;93.20
28715;DHT22;15886;49.170;14.572;2022-09-13T01:39:03;16.40;93.80
28715;DHT22;15886;49.170;14.572;2022-09-13T01:55:49;16.40;94.00
28715;DHT22;15886;49.170;14.572;2022-09-13T01:58:27;16.30;94.00
28715;DHT22;15886;49.170;14.572;2022-09-13T02:01:03;16.30;93.90
28715;DHT22;15886;49.170;14.572;2022-09-13T02:03:37;16.30;93.90
28715;DHT22;15886;49.170;14.572;2022-09-13T02:06:19;16.20;93.90
28715;DHT22;15886;49.170;14.572;2022-09-13T02:08:55;16.30;93.90
28715;DHT22;15886;49.170;14.572;2022-09-13T02:11:27;16.20;94.10
28715;DHT22;15886;49.170;14.572;2022-09-13T02:14:05;16.20;94.10
28715;DHT22;15886;49.170;14.572;2022-09-13T02:16:47;16.20;94.00
28715;DHT22;15886;49.170;14.572;2022-09-13T02:47:08;16.00;95.00
28715;DHT22;15886;49.170;14.572;2022-09-13T02:52:49;16.00;95.50
28715;DHT22;15886;49.170;14.572;2022-09-13T03:01:25;15.80;95.60
28715;DHT22;15886;49.170;14.572;2022-09-13T03:03:54;15.80;95.20
28715;DHT22;15886;49.170;14.572;2022-09-13T03:06:28;15.70;95.40
28715;DHT22;15886;49.170;14.572;2022-09-13T03:08:59;15.70;95.60
28715;DHT22;15886;49.170;14.572;2022-09-13T03:14:38;15.70;95.70
28715;DHT22;15886;49.170;14.572;2022-09-13T03:17:19;15.70;95.80
28715;DHT22;15886;49.170;14.572;2022-09-13T03:23:03;15.80;95.80
28715;DHT22;15886;49.170;14.572;2022-09-13T03:25:46;15.80;95.70
28715;DHT22;15886;49.170;14.572;2022-09-13T03:28:41;15.70;96.00
28715;DHT22;15886;49.170;14.572;2022-09-13T03:31:47;15.60;96.20
28715;DHT22;15886;49.170;14.572;2022-09-13T03:40:20;15.40;96.80
28715;DHT22;15886;49.170;14.572;2022-09-13T03:45:55;15.50;96.80
28715;DHT22;15886;49.170;14.572;2022-09-13T03:58:42;15.40;96.30
28715;DHT22;15886;49.170;14.572;2022-09-13T04:01:36;15.40;96.30
28715;DHT22;15886;49.170;14.572;2022-09-13T04:04:08;15.50;96.30
28715;DHT22;15886;49.170;14.572;2022-09-13T04:07:06;15.50;96.00
28715;DHT22;15886;49.170;14.572;2022-09-13T04:09:47;15.40;96.10
28715;DHT22;15886;49.170;14.572;2022-09-13T04:12:27;15.50;96.00
28715;DHT22;15886;49.170;14.572;2022-09-13T04:15:05;15.50;96.00
28715;DHT22;15886;49.170;14.572;2022-09-13T04:18:15;15.50;95.80
28715;DHT22;15886;49.170;14.572;2022-09-13T04:20:59;15.60;95.60
28715;DHT22;15886;49.170;14.572;2022-09-13T04:23:49;15.50;95.50
28715;DHT22;15886;49.170;14.572;2022-09-13T04:26:24;15.60;95.10
28715;DHT22;15886;49.170;14.572;2022-09-13T04:29:45;15.60;94.80
28715;DHT22;15886;49.170;14.572;2022-09-13T04:32:37;15.60;94.50
28715;DHT22;15886;49.170;14.572;2022-09-13T04:35:06;15.60;93.90
28715;DHT22;15886;49.170;14.572;2022-09-13T04:37:37;15.60;93.80
28715;DHT22;15886;49.170;14.572;2022-09-13T04:40:06;15.60;93.60
28715;DHT22;15886;49.170;14.572;2022-09-13T04:42:35;15.60;93.40
28715;DHT22;15886;49.170;14.572;2022-09-13T04:45:12;15.60;93.30
28715;DHT22;15886;49.170;14.572;2022-09-13T04:47:41;15.50;93.40
28715;DHT22;15886;49.170;14.572;2022-09-13T04:50:09;15.60;93.30
28715;DHT22;15886;49.170;14.572;2022-09-13T04:52:39;15.50;93.40
28715;DHT22;15886;49.170;14.572;2022-09-13T04:55:10;15.50;93.70
28715;DHT22;15886;49.170;14.572;2022-09-13T04:57:43;15.50;93.20
28715;DHT22;15886;49.170;14.572;2022-09-13T05:01:13;15.50;93.30
28715;DHT22;15886;49.170;14.572;2022-09-13T05:03:57;15.50;93.30
28715;DHT22;15886;49.170;14.572;2022-09-13T05:57:03;15.60;94.80
28715;DHT22;15886;49.170;14.572;2022-09-13T05:59:37;15.60;95.00
28715;DHT22;15886;49.170;14.572;2022-09-13T06:08:54;15.80;95.40
28715;DHT22;15886;49.170;14.572;2022-09-13T06:16:10;16.00;95.70
28715;DHT22;15886;49.170;14.572;2022-09-13T06:20:15;16.10;95.70
28715;DHT22;15886;49.170;14.572;2022-09-13T07:08:34;17.20;95.00
28715;DHT22;15886;49.170;14.572;2022-09-13T08:25:58;19.50;94.30
28715;DHT22;15886;49.170;14.572;2022-09-13T08:34:06;19.60;94.10
28715;DHT22;15886;49.170;14.572;2022-09-13T08:46:20;19.70;94.90
28715;DHT22;15886;49.170;14.572;2022-09-13T08:54:10;20.20;94.10
28715;DHT22;15886;49.170;14.572;2022-09-13T09:01:02;20.40;93.70
28715;DHT22;15886;49.170;14.572;2022-09-13T09:06:38;20.50;93.70
28715;DHT22;15886;49.170;14.572;2022-09-13T09:10:15;20.70;93.50
28715;DHT22;15886;49.170;14.572;2022-09-13T09:13:39;20.70;93.10
28715;DHT22;15886;49.170;14.572;2022-09-13T09:16:56;20.80;93.50
28715;DHT22;15886;49.170;14.572;2022-09-13T09:19:38;20.90;93.50
28715;DHT22;15886;49.170;14.572;2022-09-13T09:23:36;21.00;93.00
28715;DHT22;15886;49.170;14.572;2022-09-13T09:26:35;21.20;93.40
28715;DHT22;15886;49.170;14.572;2022-09-13T09:45:54;21.90;92.00
28715;DHT22;15886;49.170;14.572;2022-09-13T09:53:36;22.10;90.30
28715;DHT22;15886;49.170;14.572;2022-09-13T10:18:17;23.10;89.20
28715;DHT22;15886;49.170;14.572;2022-09-13T11:55:44;23.90;72.50
28715;DHT22;15886;49.170;14.572;2022-09-13T11:58:22;24.10;67.10
28715;DHT22;15886;49.170;14.572;2022-09-13T12:04:07;24.50;71.70
28715;DHT22;15886;49.170;14.572;2022-09-13T12:06:42;24.70;69.20
28715;DHT22;15886;49.170;14.572;2022-09-13T12:09:26;24.80;73.90
28715;DHT22;15886;49.170;14.572;2022-09-13T12:12:10;24.80;69.10
28715;DHT22;15886;49.170;14.572;2022-09-13T12:15:02;25.20;75.60
28715;DHT22;15886;49.170;14.572;2022-09-13T12:17:38;25.00;62.70
28715;DHT22;15886;49.170;14.572;2022-09-13T12:20:32;25.20;71.30
28715;DHT22;15886;49.170;14.572;2022-09-13T12:23:05;25.30;76.20
28715;DHT22;15886;49.170;14.572;2022-09-13T12:26:36;25.40;70.40
28715;DHT22;15886;49.170;14.572;2022-09-13T12:28:45;25.30;78.40
28715;DHT22;15886;49.170;14.572;2022-09-13T12:31:48;25.30;68.70
28715;DHT22;15886;49.170;14.572;2022-09-13T12:34:46;25.40;74.80
28715;DHT22;15886;49.170;14.572;2022-09-13T12:52:15;25.70;76.00
28715;DHT22;15886;49.170;14.572;2022-09-13T12:57:40;25.60;64.60
28715;DHT22;15886;49.170;14.572;2022-09-13T13:00:19;25.40;69.20
28715;DHT22;15886;49.170;14.572;2022-09-13T13:05:32;25.00;66.10
28715;DHT22;15886;49.170;14.572;2022-09-13T13:16:24;25.00;68.40
28715;DHT22;15886;49.170;14.572;2022-09-13T13:19:30;24.50;65.80
28715;DHT22;15886;49.170;14.572;2022-09-13T13:27:53;24.60;71.10
28715;DHT22;15886;49.170;14.572;2022-09-13T13:33:15;24.30;65.10
28715;DHT22;15886;49.170;14.572;2022-09-13T13:35:44;24.60;74.90
28715;DHT22;15886;49.170;14.572;2022-09-13T13:38:38;24.50;66.60
28715;DHT22;15886;49.170;14.572;2022-09-13T13:44:00;24.50;66.50
28715;DHT22;15886;49.170;14.572;2022-09-13T13:46:30;24.50;68.00
28715;DHT22;15886;49.170;14.572;2022-09-13T14:06:16;24.70;77.90
28715;DHT22;15886;49.170;14.572;2022-09-13T14:12:14;24.60;79.00
28715;DHT22;15886;49.170;14.572;2022-09-13T14:20:16;24.50;75.60
28715;DHT22;15886;49.170;14.572;2022-09-13T14:22:45;24.30;73.70
28715;DHT22;15886;49.170;14.572;2022-09-13T14:27:57;24.30;78.00
28715;DHT22;15886;49.170;14.572;2022-09-13T14:30:33;24.20;75.40
28715;DHT22;15886;49.170;14.572;2022-09-13T14:33:03;24.10;75.70
28715;DHT22;15886;49.170;14.572;2022-09-13T14:35:37;24.00;74.40
28715;DHT22;15886;49.170;14.572;2022-09-13T14:38:19;24.00;73.20
28715;DHT22;15886;49.170;14.572;2022-09-13T14:40:52;24.10;77.70
28715;DHT22;15886;49.170;14.572;2022-09-13T14:43:27;24.10;79.50
28715;DHT22;15886;49.170;14.572;2022-09-13T14:46:25;24.20;79.60
28715;DHT22;15886;49.170;14.572;2022-09-13T14:49:01;24.20;80.10
28715;DHT22;15886;49.170;14.572;2022-09-13T14:51:51;24.20;79.60
28715;DHT22;15886;49.170;14.572;2022-09-13T14:54:28;24.20;78.80
28715;DHT22;15886;49.170;14.572;2022-09-13T14:57:00;24.30;78.70
28715;DHT22;15886;49.170;14.572;2022-09-13T14:59:33;24.30;79.60
28715;DHT22;15886;49.170;14.572;2022-09-13T15:02:16;24.30;79.70
28715;DHT22;15886;49.170;14.572;2022-09-13T15:04:50;24.30;79.80
28715;DHT22;15886;49.170;14.572;2022-09-13T15:07:27;24.30;80.60
28715;DHT22;15886;49.170;14.572;2022-09-13T15:10:04;24.30;79.80
28715;DHT22;15886;49.170;14.572;2022-09-13T15:12:34;24.30;80.90
28715;DHT22;15886;49.170;14.572;2022-09-13T15:15:33;24.30;81.30
28715;DHT22;15886;49.170;14.572;2022-09-13T15:26:10;24.20;77.70
28715;DHT22;15886;49.170;14.572;2022-09-13T15:28:57;24.10;76.80
28715;DHT22;15886;49.170;14.572;2022-09-13T15:31:30;24.20;78.20
28715;DHT22;15886;49.170;14.572;2022-09-13T15:34:21;24.20;76.10
28715;DHT22;15886;49.170;14.572;2022-09-13T15:37:13;24.10;75.80
28715;DHT22;15886;49.170;14.572;2022-09-13T15:40:06;24.10;76.80
28715;DHT22;15886;49.170;14.572;2022-09-13T15:42:35;24.20;78.20
28715;DHT22;15886;49.170;14.572;2022-09-13T15:45:04;24.20;79.30
28715;DHT22;15886;49.170;14.572;2022-09-13T15:47:34;24.30;79.50
28715;DHT22;15886;49.170;14.572;2022-09-13T15:50:02;24.30;78.30
28715;DHT22;15886;49.170;14.572;2022-09-13T15:52:31;24.30;79.10
28715;DHT22;15886;49.170;14.572;2022-09-13T15:54:59;24.30;79.90
28715;DHT22;15886;49.170;14.572;2022-09-13T15:57:28;24.30;81.10
28715;DHT22;15886;49.170;14.572;2022-09-13T15:59:58;24.30;81.20
28715;DHT22;15886;49.170;14.572;2022-09-13T16:02:36;24.30;80.40
28715;DHT22;15886;49.170;14.572;2022-09-13T16:05:05;24.30;81.70
28715;DHT22;15886;49.170;14.572;2022-09-13T16:07:35;24.30;82.00
28715;DHT22;15886;49.170;14.572;2022-09-13T16:10:10;24.30;80.60
28715;DHT22;15886;49.170;14.572;2022-09-13T16:12:38;24.20;82.10
28715;DHT22;15886;49.170;14.572;2022-09-13T16:15:07;24.20;83.70
28715;DHT22;15886;49.170;14.572;2022-09-13T16:17:36;24.10;83.40
28715;DHT22;15886;49.170;14.572;2022-09-13T16:20:05;23.80;78.90
28715;DHT22;15886;49.170;14.572;2022-09-13T16:22:35;23.70;82.10
28715;DHT22;15886;49.170;14.572;2022-09-13T16:25:10;23.70;80.10
28715;DHT22;15886;49.170;14.572;2022-09-13T16:27:42;23.70;82.40
28715;DHT22;15886;49.170;14.572;2022-09-13T16:30:18;23.70;82.80
28715;DHT22;15886;49.170;14.572;2022-09-13T16:32:49;23.80;83.40
28715;DHT22;15886;49.170;14.572;2022-09-13T16:35:21;23.60;81.00
28715;DHT22;15886;49.170;14.572;2022-09-13T16:37:52;23.50;82.50
28715;DHT22;15886;49.170;14.572;2022-09-13T16:40:21;23.50;83.60
28715;DHT22;15886;49.170;14.572;2022-09-13T16:42:50;23.50;85.60
28715;DHT22;15886;49.170;14.572;2022-09-13T16:45:19;23.50;84.40
28715;DHT22;15886;49.170;14.572;2022-09-13T16:52:11;23.50;85.90
28715;DHT22;15886;49.170;14.572;2022-09-13T16:54:47;23.40;85.10
28715;DHT22;15886;49.170;14.572;2022-09-13T16:57:49;23.40;85.60
28715;DHT22;15886;49.170;14.572;2022-09-13T17:00:55;23.30;86.00
28715;DHT22;15886;49.170;14.572;2022-09-13T17:03:40;23.20;84.00
28715;DHT22;15886;49.170;14.572;2022-09-13T17:09:17;23.20;85.10
28715;DHT22;15886;49.170;14.572;2022-09-13T17:15:59;23.10;85.60
28715;DHT22;15886;49.170;14.572;2022-09-13T17:18:29;23.00;85.20
28715;DHT22;15886;49.170;14.572;2022-09-13T17:20:59;23.00;85.60
28715;DHT22;15886;49.170;14.572;2022-09-13T17:23:28;22.90;85.60
28715;DHT22;15886;49.170;14.572;2022-09-13T17:25:56;22.80;85.40
28715;DHT22;15886;49.170;14.572;2022-09-13T17:28:25;22.80;85.50
28715;DHT22;15886;49.170;14.572;2022-09-13T17:30:53;22.80;85.10
28715;DHT22;15886;49.170;14.572;2022-09-13T17:33:28;22.70;84.70
28715;DHT22;15886;49.170;14.572;2022-09-13T17:36:03;22.70;84.40
28715;DHT22;15886;49.170;14.572;2022-09-13T17:38:35;22.70;85.10
28715;DHT22;15886;49.170;14.572;2022-09-13T17:41:06;22.60;85.30
28715;DHT22;15886;49.170;14.572;2022-09-13T17:43:37;22.50;85.00
28715;DHT22;15886;49.170;14.572;2022-09-13T17:46:14;22.50;85.00
28715;DHT22;15886;49.170;14.572;2022-09-13T17:48:43;22.40;85.10
28715;DHT22;15886;49.170;14.572;2022-09-13T17:51:33;22.40;85.30
28715;DHT22;15886;49.170;14.572;2022-09-13T17:57:15;22.30;85.60
28715;DHT22;15886;49.170;14.572;2022-09-13T17:59:44;22.20;85.40
28715;DHT22;15886;49.170;14.572;2022-09-13T18:02:15;22.20;85.30
28715;DHT22;15886;49.170;14.572;2022-09-13T18:04:57;22.20;85.50
28715;DHT22;15886;49.170;14.572;2022-09-13T18:11:02;22.10;85.60
28715;DHT22;15886;49.170;14.572;2022-09-13T18:16:37;22.00;85.30
28715;DHT22;15886;49.170;14.572;2022-09-13T18:19:16;21.90;85.80
28715;DHT22;15886;49.170;14.572;2022-09-13T18:21:55;21.90;86.80
28715;DHT22;15886;49.170;14.572;2022-09-13T18:24:40;21.90;86.80
28715;DHT22;15886;49.170;14.572;2022-09-13T18:27:14;21.80;86.30
28715;DHT22;15886;49.170;14.572;2022-09-13T18:29:59;21.80;87.10
28715;DHT22;15886;49.170;14.572;2022-09-13T18:32:46;21.70;87.90
28715;DHT22;15886;49.170;14.572;2022-09-13T18:35:23;21.80;87.30
28715;DHT22;15886;49.170;14.572;2022-09-13T18:38:05;21.70;86.90
28715;DHT22;15886;49.170;14.572;2022-09-13T18:41:00;21.70;87.20
28715;DHT22;15886;49.170;14.572;2022-09-13T18:43:34;21.50;87.00
28715;DHT22;15886;49.170;14.572;2022-09-13T18:46:10;21.50;87.10
28715;DHT22;15886;49.170;14.572;2022-09-13T18:48:49;21.40;86.70
28715;DHT22;15886;49.170;14.572;2022-09-13T18:52:04;21.40;86.80
28715;DHT22;15886;49.170;14.572;2022-09-13T18:54:20;21.30;86.80
28715;DHT22;15886;49.170;14.572;2022-09-13T18:56:50;21.20;87.30
28715;DHT22;15886;49.170;14.572;2022-09-13T18:59:22;21.20;87.30
28715;DHT22;15886;49.170;14.572;2022-09-13T19:01:51;21.20;87.00
28715;DHT22;15886;49.170;14.572;2022-09-13T19:04:22;21.10;87.30
28715;DHT22;15886;49.170;14.572;2022-09-13T19:06:55;21.10;87.60
28715;DHT22;15886;49.170;14.572;2022-09-13T19:13:08;21.10;87.40
28715;DHT22;15886;49.170;14.572;2022-09-13T19:15:43;21.10;87.10
28715;DHT22;15886;49.170;14.572;2022-09-13T19:18:18;21.00;87.40
28715;DHT22;15886;49.170;14.572;2022-09-13T19:21:06;21.10;87.40
28715;DHT22;15886;49.170;14.572;2022-09-13T19:23:44;21.10;87.50
28715;DHT22;15886;49.170;14.572;2022-09-13T19:26:36;21.00;87.10
28715;DHT22;15886;49.170;14.572;2022-09-13T19:29:11;21.00;87.50
28715;DHT22;15886;49.170;14.572;2022-09-13T19:31:42;20.90;87.40
28715;DHT22;15886;49.170;14.572;2022-09-13T19:34:11;20.90;87.20
28715;DHT22;15886;49.170;14.572;2022-09-13T19:39:42;20.80;87.80
28715;DHT22;15886;49.170;14.572;2022-09-13T19:42:13;20.80;88.10
28715;DHT22;15886;49.170;14.572;2022-09-13T19:44:41;20.80;88.20
28715;DHT22;15886;49.170;14.572;2022-09-13T19:47:11;20.80;88.70
28715;DHT22;15886;49.170;14.572;2022-09-13T19:50:08;20.80;88.30
28715;DHT22;15886;49.170;14.572;2022-09-13T19:52:40;20.80;87.70
28715;DHT22;15886;49.170;14.572;2022-09-13T19:55:16;20.70;87.20
28715;DHT22;15886;49.170;14.572;2022-09-13T19:57:51;20.60;87.90
28715;DHT22;15886;49.170;14.572;2022-09-13T20:00:25;20.60;88.00
28715;DHT22;15886;49.170;14.572;2022-09-13T20:03:02;20.50;87.50
28715;DHT22;15886;49.170;14.572;2022-09-13T20:05:41;20.50;88.40
28715;DHT22;15886;49.170;14.572;2022-09-13T20:08:25;20.50;88.70
28715;DHT22;15886;49.170;14.572;2022-09-13T20:11:06;20.50;88.80
28715;DHT22;15886;49.170;14.572;2022-09-13T20:13:50;20.50;88.50
28715;DHT22;15886;49.170;14.572;2022-09-13T20:16:27;20.40;88.60
28715;DHT22;15886;49.170;14.572;2022-09-13T20:19:00;20.40;89.10
28715;DHT22;15886;49.170;14.572;2022-09-13T20:21:42;20.40;88.50
28715;DHT22;15886;49.170;14.572;2022-09-13T20:24:17;20.30;88.70
28715;DHT22;15886;49.170;14.572;2022-09-13T20:26:52;20.30;89.10
28715;DHT22;15886;49.170;14.572;2022-09-13T20:29:24;20.20;88.70
28715;DHT22;15886;49.170;14.572;2022-09-13T20:31:55;20.20;88.80
28715;DHT22;15886;49.170;14.572;2022-09-13T20:34:27;20.20;89.50
28715;DHT22;15886;49.170;14.572;2022-09-13T20:36:59;20.20;88.70
28715;DHT22;15886;49.170;14.572;2022-09-13T20:39:31;20.10;88.40
28715;DHT22;15886;49.170;14.572;2022-09-13T20:42:01;20.10;89.20
28715;DHT22;15886;49.170;14.572;2022-09-13T20:44:34;20.10;89.10
28715;DHT22;15886;49.170;14.572;2022-09-13T20:47:06;20.10;89.30
28715;DHT22;15886;49.170;14.572;2022-09-13T20:49:38;20.10;89.30
28715;DHT22;15886;49.170;14.572;2022-09-13T20:52:10;20.20;89.40
28715;DHT22;15886;49.170;14.572;2022-09-13T20:54:44;20.20;90.00
28715;DHT22;15886;49.170;14.572;2022-09-13T20:57:15;20.20;89.70
28715;DHT22;15886;49.170;14.572;2022-09-13T20:59:47;20.10;89.50
28715;DHT22;15886;49.170;14.572;2022-09-13T21:02:19;20.10;90.10
28715;DHT22;15886;49.170;14.572;2022-09-13T21:04:51;20.10;90.00
28715;DHT22;15886;49.170;14.572;2022-09-13T21:07:22;20.10;89.60
28715;DHT22;15886;49.170;14.572;2022-09-13T21:10:11;20.00;89.60
28715;DHT22;15886;49.170;14.572;2022-09-13T21:12:50;20.00;89.90
28715;DHT22;15886;49.170;14.572;2022-09-13T21:15:26;20.00;90.00
28715;DHT22;15886;49.170;14.572;2022-09-13T21:18:00;20.00;90.10
28715;DHT22;15886;49.170;14.572;2022-09-13T21:20:52;20.10;90.20
28715;DHT22;15886;49.170;14.572;2022-09-13T21:23:46;20.10;90.20
28715;DHT22;15886;49.170;14.572;2022-09-13T21:26:30;20.10;90.10
28715;DHT22;15886;49.170;14.572;2022-09-13T21:29:06;20.10;90.00
28715;DHT22;15886;49.170;14.572;2022-09-13T21:31:40;20.00;90.10
28715;DHT22;15886;49.170;14.572;2022-09-13T21:34:17;20.10;90.20
28715;DHT22;15886;49.170;14.572;2022-09-13T21:36:49;20.00;90.00
28715;DHT22;15886;49.170;14.572;2022-09-13T21:39:25;20.00;90.20
28715;DHT22;15886;49.170;14.572;2022-09-13T21:42:03;19.90;90.10
28715;DHT22;15886;49.170;14.572;2022-09-13T21:44:39;19.90;90.10
28715;DHT22;15886;49.170;14.572;2022-09-13T21:47:22;19.90;90.40
28715;DHT22;15886;49.170;14.572;2022-09-13T21:49:55;19.90;90.20
28715;DHT22;15886;49.170;14.572;2022-09-13T21:52:57;19.80;90.20
28715;DHT22;15886;49.170;14.572;2022-09-13T21:55:33;19.70;90.20
28715;DHT22;15886;49.170;14.572;2022-09-13T21:58:57;19.80;90.50
28715;DHT22;15886;49.170;14.572;2022-09-13T22:01:38;19.70;90.40
28715;DHT22;15886;49.170;14.572;2022-09-13T22:04:17;19.70;90.80
28715;DHT22;15886;49.170;14.572;2022-09-13T22:06:51;19.70;90.80
28715;DHT22;15886;49.170;14.572;2022-09-13T22:09:25;19.70;90.80
28715;DHT22;15886;49.170;14.572;2022-09-13T22:11:59;19.70;90.90
28715;DHT22;15886;49.170;14.572;2022-09-13T22:14:31;19.70;90.70
28715;DHT22;15886;49.170;14.572;2022-09-13T22:17:02;19.70;91.00
28715;DHT22;15886;49.170;14.572;2022-09-13T22:19:31;19.70;91.20
28715;DHT22;15886;49.170;14.572;2022-09-13T22:22:13;19.70;91.20
28715;DHT22;15886;49.170;14.572;2022-09-13T22:24:49;19.80;91.00
28715;DHT22;15886;49.170;14.572;2022-09-13T22:27:20;19.80;90.90
28715;DHT22;15886;49.170;14.572;2022-09-13T22:29:50;19.90;90.90
28715;DHT22;15886;49.170;14.572;2022-09-13T22:32:21;19.80;90.90
28715;DHT22;15886;49.170;14.572;2022-09-13T22:34:56;19.80;91.20
28715;DHT22;15886;49.170;14.572;2022-09-13T22:37:30;19.80;91.20
28715;DHT22;15886;49.170;14.572;2022-09-13T22:40:06;19.80;91.30
28715;DHT22;15886;49.170;14.572;2022-09-13T22:42:51;19.80;91.40
28715;DHT22;15886;49.170;14.572;2022-09-13T22:45:25;19.90;91.30
28715;DHT22;15886;49.170;14.572;2022-09-13T22:47:59;19.90;91.50
28715;DHT22;15886;49.170;14.572;2022-09-13T22:50:42;19.90;91.60
28715;DHT22;15886;49.170;14.572;2022-09-13T22:53:21;19.90;91.80
28715;DHT22;15886;49.170;14.572;2022-09-13T22:56:06;19.80;91.70
28715;DHT22;15886;49.170;14.572;2022-09-13T22:58:36;19.90;91.30
28715;DHT22;15886;49.170;14.572;2022-09-13T23:04:25;19.90;91.40
28715;DHT22;15886;49.170;14.572;2022-09-13T23:07:08;19.90;91.30
28715;DHT22;15886;49.170;14.572;2022-09-13T23:10:26;19.90;91.50
28715;DHT22;15886;49.170;14.572;2022-09-13T23:14:03;19.90;91.50
28715;DHT22;15886;49.170;14.572;2022-09-13T23:16:41;19.90;91.30
28715;DHT22;15886;49.170;14.572;2022-09-13T23:19:44;20.00;91.30
28715;DHT22;15886;49.170;14.572;2022-09-13T23:26:28;19.90;91.50
28715;DHT22;15886;49.170;14.572;2022-09-13T23:29:26;19.90;91.80
28715;DHT22;15886;49.170;14.572;2022-09-13T23:38:29;19.90;91.70
28715;DHT22;15886;49.170;14.572;2022-09-13T23:41:11;19.80;91.60
28715;DHT22;15886;49.170;14.572;2022-09-13T23:44:21;19.80;91.60
28715;DHT22;15886;49.170;14.572;2022-09-13T23:48:07;19.70;91.60
28715;DHT22;15886;49.170;14.572;2022-09-13T23:51:27;19.70;91.50
28715;DHT22;15886;49.170;14.572;2022-09-13T23:54:32;19.60;91.60
28715;DHT22;15886;49.170;14.572;2022-09-13T23:57:23;19.60;91.70
28715;DHT22;15886;49.170;14.572;2022-09-13T23:59:58;19.60;91.80
